Time;durP1;ratioP1;P1;durP2;ratioP2;P2;SDS_P1;SDS_P2;PMS_P1;PMS_P2;Temp;Humidity;BMP_temperature;BMP_pressure;BME280_temperature;BME280_humidity;BME280_pressure;Samples;Min_cycle;Max_cycle;Signal;HPM_P1;HPM_P2
2023/10/04 00:01:27;;;;;;;5.40;2.63;;;12.10;99.10;;;;;;7388541;19;20014;-70
2023/10/04 00:03:57;;;;;;;5.47;2.30;;;12.10;98.60;;;;;;7389047;19;20081;-71
2023/10/04 00:06:27;;;;;;;4.85;2.65;;;12.10;99.80;;;;;;7387605;19;20018;-70
2023/10/04 00:08:58;;;;;;;6.25;2.67;;;12.00;99.90;;;;;;7389238;19;20029;-68
2023/10/04 00:11:31;;;;;;;5.88;2.78;;;11.90;98.30;;;;;;7388669;19;20022;-70
2023/10/04 00:14:01;;;;;;;3.97;2.05;;;11.90;97.90;;;;;;7387666;19;20031;-68
2023/10/04 00:16:32;;;;;;;4.45;2.50;;;11.90;99.90;;;;;;7389656;19;20416;-68
2023/10/04 00:19:02;;;;;;;5.07;2.88;;;11.90;99.90;;;;;;7389456;19;20030;-68
2023/10/04 00:21:35;;;;;;;5.28;2.50;;;12.00;99.90;;;;;;7389158;19;20475;-69
2023/10/04 00:24:09;;;;;;;4.70;2.17;;;12.00;99.70;;;;;;7389059;19;20010;-69
2023/10/04 00:26:43;;;;;;;4.05;2.50;;;12.00;98.90;;;;;;7388744;19;20015;-69
2023/10/04 00:29:14;;;;;;;6.77;2.97;;;11.90;98.70;;;;;;7389423;19;20018;-68
2023/10/04 00:31:45;;;;;;;4.07;2.30;;;11.90;96.60;;;;;;7388843;19;20499;-69
2023/10/04 00:34:15;;;;;;;4.35;2.30;;;11.90;98.50;;;;;;7388931;19;20014;-69
2023/10/04 00:36:45;;;;;;;5.22;2.53;;;11.90;99.90;;;;;;7389209;19;20014;-69
2023/10/04 00:39:15;;;;;;;4.88;2.58;;;11.90;99.90;;;;;;7388762;19;20509;-69
2023/10/04 00:41:52;;;;;;;5.22;2.70;;;11.80;99.90;;;;;;7388074;19;20014;-68
2023/10/04 00:44:22;;;;;;;5.18;2.72;;;11.80;99.90;;;;;;7394994;19;20022;-69
2023/10/04 00:46:52;;;;;;;5.70;2.60;;;11.80;99.90;;;;;;7394933;19;20097;-69
2023/10/04 00:49:21;;;;;;;5.15;2.70;;;11.80;99.90;;;;;;7395202;19;20077;-68
2023/10/04 00:51:52;;;;;;;5.40;2.97;;;11.80;98.80;;;;;;7395076;19;20130;-68
2023/10/04 00:54:22;;;;;;;5.85;2.50;;;11.70;95.00;;;;;;7393695;19;20020;-69
2023/10/04 00:56:55;;;;;;;4.55;2.40;;;11.70;94.00;;;;;;7392903;19;20011;-70
2023/10/04 00:59:25;;;;;;;4.18;2.50;;;11.70;94.30;;;;;;7395143;19;20021;-70
2023/10/04 01:01:56;;;;;;;6.20;2.53;;;11.70;97.30;;;;;;7395923;19;20031;-70
2023/10/04 01:04:28;;;;;;;6.68;2.65;;;11.70;98.90;;;;;;7396593;19;20018;-70
2023/10/04 01:06:58;;;;;;;4.53;2.10;;;11.70;99.90;;;;;;7394260;19;20022;-70
2023/10/04 01:09:31;;;;;;;5.97;2.33;;;11.60;99.90;;;;;;7395362;19;20014;-70
2023/10/04 01:12:04;;;;;;;4.57;2.20;;;11.60;99.90;;;;;;7394838;19;20015;-70
2023/10/04 01:14:37;;;;;;;6.30;2.63;;;11.60;99.90;;;;;;7395402;19;20039;-70
2023/10/04 01:17:12;;;;;;;4.35;2.45;;;11.60;99.90;;;;;;7393820;19;20081;-70
2023/10/04 01:19:43;;;;;;;4.32;2.25;;;11.70;99.90;;;;;;7393934;19;20008;-69
2023/10/04 01:22:15;;;;;;;6.18;2.60;;;11.60;96.90;;;;;;7392443;19;20010;-70
2023/10/04 01:24:45;;;;;;;4.80;2.45;;;11.60;96.00;;;;;;7392294;19;20501;-70
2023/10/04 01:27:16;;;;;;;5.15;2.75;;;11.60;95.30;;;;;;7394011;19;20018;-69
2023/10/04 01:29:43;;;;;;;5.13;2.50;;;11.60;94.60;;;;;;7395246;19;20458;-70
2023/10/04 01:32:13;;;;;;;8.18;2.80;;;11.60;94.10;;;;;;7392096;19;20119;-69
2023/10/04 01:34:43;;;;;;;4.97;2.35;;;11.60;92.80;;;;;;7394058;19;20073;-69
2023/10/04 01:37:16;;;;;;;3.08;2.20;;;11.60;91.70;;;;;;7393077;19;20498;-69
2023/10/04 01:39:46;;;;;;;7.50;2.60;;;11.60;91.00;;;;;;7395266;19;20349;-69
2023/10/04 01:42:16;;;;;;;7.20;2.58;;;11.50;93.00;;;;;;7391847;19;20009;-69
2023/10/04 01:44:46;;;;;;;3.67;2.42;;;11.50;94.00;;;;;;7394796;19;20458;-69
2023/10/04 01:47:16;;;;;;;4.65;2.42;;;11.50;93.30;;;;;;7391813;19;20014;-69
2023/10/04 01:49:46;;;;;;;5.22;2.60;;;11.50;93.00;;;;;;7395072;19;20014;-69
2023/10/04 01:52:19;;;;;;;5.38;2.55;;;11.40;92.90;;;;;;7392764;19;20013;-69
2023/10/04 01:54:50;;;;;;;5.43;2.30;;;11.50;95.10;;;;;;7392404;19;20078;-68
2023/10/04 01:57:21;;;;;;;5.32;2.72;;;11.40;92.50;;;;;;7386756;19;20100;-70
2023/10/04 01:59:52;;;;;;;5.45;2.30;;;11.50;91.30;;;;;;7392509;19;20026;-68
2023/10/04 02:02:23;;;;;;;4.45;2.40;;;11.50;90.00;;;;;;7389323;19;20082;-69
2023/10/04 02:04:56;;;;;;;4.68;2.47;;;11.50;91.20;;;;;;7391770;19;20019;-70
2023/10/04 02:07:28;;;;;;;4.20;2.33;;;11.50;84.80;;;;;;7392249;19;20039;-70
2023/10/04 02:09:58;;;;;;;3.95;2.50;;;11.60;80.30;;;;;;7393917;19;20089;-70
2023/10/04 02:12:28;;;;;;;5.22;2.58;;;11.60;77.40;;;;;;7392336;19;20471;-69
2023/10/04 02:14:58;;;;;;;6.45;2.53;;;11.60;73.60;;;;;;7390762;19;20042;-69
2023/10/04 02:17:29;;;;;;;5.35;2.60;;;11.70;68.60;;;;;;7390881;19;20615;-69
2023/10/04 02:19:59;;;;;;;3.70;2.50;;;11.70;61.30;;;;;;7392078;19;20481;-69
2023/10/04 02:22:34;;;;;;;4.35;2.30;;;11.70;59.20;;;;;;7391934;19;20018;-70
2023/10/04 02:25:06;;;;;;;3.92;2.42;;;11.60;61.40;;;;;;7393847;19;20491;-70
2023/10/04 02:27:36;;;;;;;4.40;2.60;;;11.60;66.20;;;;;;7391485;19;20336;-70
2023/10/04 02:30:13;;;;;;;5.78;2.80;;;11.50;71.10;;;;;;7393449;19;20039;-70
2023/10/04 02:32:44;;;;;;;5.05;2.30;;;11.50;70.40;;;;;;7390609;19;20007;-69
2023/10/04 02:35:21;;;;;;;6.22;2.65;;;11.60;69.50;;;;;;7392162;19;20023;-69
2023/10/04 02:37:59;;;;;;;4.47;2.53;;;11.60;65.10;;;;;;7392852;19;20070;-70
2023/10/04 02:40:32;;;;;;;5.47;2.10;;;11.60;64.10;;;;;;7393287;19;20011;-70
2023/10/04 02:43:04;;;;;;;4.18;2.10;;;11.50;67.90;;;;;;7391103;19;20014;-69
2023/10/04 02:45:36;;;;;;;5.22;2.47;;;11.50;69.20;;;;;;7392325;19;20027;-69
2023/10/04 02:48:09;;;;;;;3.92;2.22;;;11.40;76.30;;;;;;7390958;19;20081;-69
2023/10/04 02:50:41;;;;;;;5.78;2.70;;;11.30;79.80;;;;;;7391620;19;20364;-69
2023/10/04 02:53:16;;;;;;;5.20;2.47;;;11.30;84.70;;;;;;7390995;19;20376;-70
2023/10/04 02:55:47;;;;;;;4.35;2.20;;;11.20;87.60;;;;;;7391778;19;20010;-70
2023/10/04 02:58:17;;;;;;;4.72;2.83;;;11.20;90.90;;;;;;7390511;19;20039;-70
2023/10/04 03:00:49;;;;;;;5.28;2.45;;;11.10;92.30;;;;;;7392446;19;20026;-70
2023/10/04 03:03:24;;;;;;;5.20;2.67;;;11.10;94.30;;;;;;7390202;19;20074;-69
2023/10/04 03:05:57;;;;;;;4.60;2.67;;;11.10;94.00;;;;;;7387411;19;20015;-69
2023/10/04 03:08:32;;;;;;;4.68;2.95;;;11.10;93.30;;;;;;7391939;19;20010;-70
2023/10/04 03:11:03;;;;;;;6.13;2.97;;;11.20;92.00;;;;;;7392864;19;20006;-68
2023/10/04 03:13:34;;;;;;;4.60;2.65;;;11.20;87.40;;;;;;7389834;19;20010;-68
2023/10/04 03:16:05;;;;;;;6.72;2.60;;;11.20;87.10;;;;;;7390650;19;20035;-69
2023/10/04 03:18:37;;;;;;;4.78;2.33;;;11.20;83.60;;;;;;7391454;19;20075;-69
2023/10/04 03:21:16;;;;;;;4.65;2.67;;;11.20;81.20;;;;;;7391625;19;20039;-69
2023/10/04 03:23:52;;;;;;;4.80;2.25;;;11.20;79.30;;;;;;7391304;19;20021;-69
2023/10/04 03:26:22;;;;;;;4.80;2.67;;;11.20;80.50;;;;;;7389500;19;20115;-68
2023/10/04 03:28:54;;;;;;;3.30;2.17;;;11.20;80.70;;;;;;7391138;19;20463;-69
2023/10/04 03:31:25;;;;;;;4.95;2.58;;;11.10;80.50;;;;;;7389724;19;20022;-69
2023/10/04 03:33:55;;;;;;;5.20;2.50;;;11.10;82.60;;;;;;7393845;19;20449;-70
2023/10/04 03:36:26;;;;;;;6.47;2.60;;;11.00;83.30;;;;;;7406952;19;20503;-68
2023/10/04 03:38:58;;;;;;;6.03;2.70;;;10.90;86.50;;;;;;7391660;19;20018;-70
2023/10/04 03:41:28;;;;;;;4.55;2.70;;;10.90;88.60;;;;;;7391192;19;20075;-71
2023/10/04 03:43:58;;;;;;;5.20;2.85;;;10.80;91.40;;;;;;7392562;19;20563;-70
2023/10/04 03:46:28;;;;;;;4.75;2.20;;;10.70;94.20;;;;;;7388789;19;20035;-69
2023/10/04 03:48:58;;;;;;;6.32;3.05;;;10.70;97.30;;;;;;7389459;19;20040;-69
2023/10/04 03:51:29;;;;;;;4.28;2.47;;;10.60;99.90;;;;;;7388684;19;20477;-68
2023/10/04 03:54:05;;;;;;;4.55;2.67;;;10.60;99.90;;;;;;7391411;19;20014;-69
2023/10/04 03:56:35;;;;;;;4.30;2.58;;;10.60;99.90;;;;;;7388907;19;20018;-69
2023/10/04 03:59:07;;;;;;;5.40;2.72;;;10.70;99.90;;;;;;7389027;19;20022;-68
2023/10/04 04:01:37;;;;;;;5.72;3.20;;;10.70;99.90;;;;;;7392800;19;20109;-70
2023/10/04 04:04:14;;;;;;;5.45;3.00;;;10.70;99.90;;;;;;7391961;19;20031;-69
2023/10/04 04:06:45;;;;;;;4.97;2.53;;;10.70;99.90;;;;;;7388878;19;20010;-69
2023/10/04 04:09:17;;;;;;;5.30;3.47;;;10.80;99.90;;;;;;7390059;19;20026;-69
2023/10/04 04:11:48;;;;;;;7.88;3.80;;;10.90;99.90;;;;;;7388405;19;20038;-69
2023/10/04 04:14:19;;;;;;;6.00;3.10;;;11.00;99.90;;;;;;7389800;19;20078;-69
2023/10/04 04:16:51;;;;;;;5.25;3.00;;;11.00;99.90;;;;;;7387585;19;20015;-69
2023/10/04 04:19:23;;;;;;;5.80;2.92;;;11.00;99.90;;;;;;7390874;19;20438;-68
2023/10/04 04:21:57;;;;;;;4.32;2.47;;;11.00;97.90;;;;;;7389263;19;20372;-69
2023/10/04 04:24:30;;;;;;;5.70;2.92;;;11.00;94.70;;;;;;7389419;19;20033;-69
2023/10/04 04:27:04;;;;;;;7.00;2.60;;;11.10;93.10;;;;;;7382839;19;20086;-69
2023/10/04 04:29:35;;;;;;;3.97;2.42;;;11.00;90.80;;;;;;7389205;19;20022;-69
2023/10/04 04:32:08;;;;;;;5.22;2.92;;;11.00;87.90;;;;;;7389676;19;20010;-69
2023/10/04 04:34:41;;;;;;;4.22;2.63;;;11.00;84.30;;;;;;7388221;19;20507;-69
2023/10/04 04:37:14;;;;;;;4.93;2.70;;;11.00;79.10;;;;;;7387695;19;20018;-68
2023/10/04 04:39:46;;;;;;;5.47;2.67;;;11.00;77.50;;;;;;7390202;19;20423;-68
2023/10/04 04:42:23;;;;;;;8.25;2.80;;;11.00;80.10;;;;;;7388234;19;20010;-69
2023/10/04 04:44:56;;;;;;;5.00;2.35;;;11.00;79.80;;;;;;7388308;19;20026;-69
2023/10/04 04:47:26;;;;;;;4.88;2.83;;;10.90;81.80;;;;;;7388505;19;20055;-69
2023/10/04 04:49:56;;;;;;;4.95;2.47;;;10.90;84.70;;;;;;7389034;19;20542;-69
2023/10/04 04:52:30;;;;;;;5.65;2.88;;;10.90;84.30;;;;;;7387490;19;20470;-69
2023/10/04 04:55:02;;;;;;;5.43;2.80;;;10.90;84.50;;;;;;7388817;19;20014;-69
2023/10/04 04:57:34;;;;;;;5.20;2.65;;;10.90;83.80;;;;;;7388083;19;20279;-69
2023/10/04 05:00:30;;;;;;;5.80;3.00;;;10.90;83.10;;;;;;7388542;19;20010;-69
2023/10/04 05:02:55;;;;;;;5.68;3.00;;;10.90;80.10;;;;;;7384663;19;20021;-69
2023/10/04 05:05:25;;;;;;;6.57;2.90;;;10.90;76.00;;;;;;7382039;19;20785;-70
2023/10/04 05:07:55;;;;;;;6.57;2.88;;;10.90;72.90;;;;;;7385382;19;20014;-69
2023/10/04 05:10:34;;;;;;;5.70;2.67;;;10.90;71.80;;;;;;7385496;19;20023;-69
2023/10/04 05:13:04;;;;;;;6.80;2.72;;;10.90;68.70;;;;;;7383770;19;20114;-69
2023/10/04 05:15:38;;;;;;;4.15;2.72;;;10.90;69.90;;;;;;7383802;19;20081;-69
2023/10/04 05:18:11;;;;;;;6.43;2.72;;;10.80;69.00;;;;;;7385791;19;20007;-70
2023/10/04 05:20:41;;;;;;;5.10;2.92;;;10.80;70.80;;;;;;7386662;19;20361;-70
2023/10/04 05:23:11;;;;;;;5.35;3.40;;;10.80;67.30;;;;;;7385740;19;20027;-70
2023/10/04 05:25:44;;;;;;;4.60;2.85;;;10.80;69.70;;;;;;7388319;19;20018;-70
2023/10/04 05:28:14;;;;;;;5.32;2.70;;;10.80;70.80;;;;;;7389700;19;20350;-70
2023/10/04 05:30:46;;;;;;;6.95;2.67;;;10.80;69.80;;;;;;7396277;19;20487;-70
2023/10/04 05:33:17;;;;;;;5.90;3.28;;;10.80;70.30;;;;;;7394682;19;20046;-69
2023/10/04 05:35:52;;;;;;;5.75;2.80;;;10.90;66.70;;;;;;7394241;19;20036;-70
2023/10/04 05:38:24;;;;;;;5.88;3.08;;;10.90;63.10;;;;;;7394391;19;20507;-70
2023/10/04 05:40:57;;;;;;;6.63;3.08;;;10.90;60.10;;;;;;7396209;19;20018;-69
2023/10/04 05:43:28;;;;;;;6.80;3.00;;;10.90;58.00;;;;;;7393424;19;20323;-68
2023/10/04 05:45:59;;;;;;;6.10;3.50;;;11.00;51.60;;;;;;7393679;19;20077;-69
2023/10/04 05:48:29;;;;;;;6.18;3.25;;;11.00;48.50;;;;;;7393287;19;20039;-69
2023/10/04 05:51:00;;;;;;;8.75;3.33;;;11.10;45.70;;;;;;7393808;19;20007;-69
2023/10/04 05:53:30;;;;;;;8.65;3.03;;;11.10;40.50;;;;;;7392116;19;20458;-70
2023/10/04 05:56:02;;;;;;;7.30;2.58;;;11.20;38.10;;;;;;7390367;19;20014;-69
2023/10/04 05:58:34;;;;;;;4.72;2.30;;;11.20;35.30;;;;;;7393485;19;20473;-70
2023/10/04 06:01:06;;;;;;;5.85;2.90;;;11.30;29.80;;;;;;7392389;19;20015;-69
2023/10/04 06:03:37;;;;;;;6.15;2.63;;;11.40;25.40;;;;;;7392749;19;20039;-69
2023/10/04 06:06:07;;;;;;;5.82;3.35;;;11.50;22.80;;;;;;7392311;19;20451;-69
2023/10/04 06:08:38;;;;;;;7.20;2.55;;;11.50;21.60;;;;;;7392488;19;20335;-69
2023/10/04 06:11:11;;;;;;;6.05;2.83;;;11.50;16.80;;;;;;7392744;19;20077;-69
2023/10/04 06:13:41;;;;;;;6.47;2.72;;;11.60;16.00;;;;;;7392178;19;20073;-70
2023/10/04 06:16:11;;;;;;;6.63;2.63;;;11.60;15.70;;;;;;7391276;19;20082;-69
2023/10/04 06:18:42;;;;;;;4.55;2.33;;;11.70;12.10;;;;;;7387394;19;20028;-69
2023/10/04 06:21:15;;;;;;;6.88;2.83;;;11.80;6.90;;;;;;7389448;19;20486;-70
2023/10/04 06:23:45;;;;;;;5.70;2.55;;;12.00;6.80;;;;;;7393224;19;20014;-68
2023/10/04 06:26:18;;;;;;;4.03;2.35;;;12.10;5.80;;;;;;7389958;19;20078;-69
2023/10/04 06:28:50;;;;;;;4.47;2.60;;;12.10;2.60;;;;;;7391078;19;20018;-70
2023/10/04 06:31:20;;;;;;;5.80;3.00;;;12.30;1.00;;;;;;7389258;19;20021;-68
2023/10/04 06:33:53;;;;;;;5.28;3.33;;;12.30;1.00;;;;;;7393222;19;20021;-69
2023/10/04 06:36:25;;;;;;;4.95;2.80;;;12.40;1.00;;;;;;7389747;19;20081;-70
2023/10/04 06:38:55;;;;;;;4.90;2.50;;;12.60;1.00;;;;;;7392449;19;20043;-69
2023/10/04 06:41:27;;;;;;;4.43;2.40;;;12.70;1.00;;;;;;7390885;19;20116;-69
2023/10/04 06:43:57;;;;;;;6.65;2.65;;;12.80;1.00;;;;;;7391672;19;20053;-69
2023/10/04 06:46:28;;;;;;;4.90;2.65;;;13.00;1.00;;;;;;7389802;19;20015;-70
2023/10/04 06:48:58;;;;;;;5.60;2.53;;;13.10;1.00;;;;;;7391289;19;20082;-69
2023/10/04 06:51:28;;;;;;;8.68;2.40;;;13.10;1.00;;;;;;7390183;19;20010;-70
2023/10/04 06:53:58;;;;;;;4.55;2.13;;;13.30;1.00;;;;;;7391640;19;20530;-69
2023/10/04 06:56:30;;;;;;;5.63;2.50;;;13.30;1.00;;;;;;7390865;19;20094;-70
2023/10/04 06:59:00;;;;;;;4.13;2.35;;;13.40;1.00;;;;;;7390805;19;20010;-69
2023/10/04 07:01:31;;;;;;;4.03;2.28;;;13.40;1.00;;;;;;7389503;19;20340;-68
2023/10/04 07:04:01;;;;;;;6.72;2.13;;;13.40;1.00;;;;;;7390125;19;20019;-69
2023/10/04 07:06:32;;;;;;;4.90;2.30;;;13.40;1.00;;;;;;7389868;19;20028;-70
2023/10/04 07:09:02;;;;;;;7.55;2.50;;;13.30;1.00;;;;;;7392525;19;20006;-69
2023/10/04 07:11:35;;;;;;;4.93;2.58;;;13.30;1.00;;;;;;7390529;19;20023;-69
2023/10/04 07:14:05;;;;;;;3.35;2.10;;;13.50;1.00;;;;;;7391042;19;20094;-70
2023/10/04 07:16:35;;;;;;;7.50;2.10;;;13.70;1.00;;;;;;7390763;19;20082;-70
2023/10/04 07:19:11;;;;;;;6.40;2.40;;;13.70;1.00;;;;;;7392206;19;20014;-69
2023/10/04 07:21:41;;;;;;;6.70;2.40;;;13.70;1.00;;;;;;7391708;19;20710;-69
2023/10/04 07:24:12;;;;;;;5.07;2.00;;;13.80;1.00;;;;;;7390684;19;20010;-69
2023/10/04 07:26:45;;;;;;;3.40;1.83;;;13.90;1.00;;;;;;7391167;19;20474;-69
2023/10/04 07:29:15;;;;;;;5.97;2.42;;;14.00;1.00;;;;;;7391056;19;20026;-70
2023/10/04 07:31:45;;;;;;;11.23;2.58;;;13.90;1.00;;;;;;7389339;19;20014;-70
2023/10/04 07:34:15;;;;;;;11.65;2.42;;;14.00;1.00;;;;;;7389995;19;20002;-69
2023/10/04 07:36:45;;;;;;;4.40;2.08;;;14.10;1.00;;;;;;7388533;19;20094;-69
2023/10/04 07:39:16;;;;;;;4.50;2.53;;;14.20;1.00;;;;;;7382962;19;20015;-69
2023/10/04 07:41:49;;;;;;;7.43;2.67;;;14.30;1.00;;;;;;7385681;19;20038;-70
2023/10/04 07:44:19;;;;;;;5.07;1.90;;;14.50;1.00;;;;;;7385140;19;20043;-70
2023/10/04 07:46:48;;;;;;;5.03;2.03;;;14.50;1.00;;;;;;7386958;19;20074;-70
2023/10/04 07:49:19;;;;;;;10.82;2.00;;;14.60;1.00;;;;;;7386675;19;20017;-70
2023/10/04 07:51:49;;;;;;;7.65;2.30;;;14.70;1.00;;;;;;7384302;19;20025;-69
2023/10/04 07:54:19;;;;;;;6.35;2.25;;;14.80;1.00;;;;;;7387411;19;20015;-70
2023/10/04 07:56:52;;;;;;;6.53;1.60;;;14.90;1.00;;;;;;7387010;19;20018;-70
2023/10/04 07:59:22;;;;;;;4.03;1.58;;;14.90;1.00;;;;;;7386159;19;20070;-69
2023/10/04 08:01:53;;;;;;;5.20;1.95;;;14.90;1.00;;;;;;7386500;19;20093;-69
2023/10/04 08:04:23;;;;;;;6.70;1.83;;;14.90;1.00;;;;;;7385236;19;20007;-70
2023/10/04 08:06:56;;;;;;;3.33;1.55;;;15.00;1.00;;;;;;7386631;19;20015;-69
2023/10/04 08:09:26;;;;;;;6.28;1.77;;;15.00;1.00;;;;;;7387057;19;20011;-70
2023/10/04 08:11:59;;;;;;;3.72;1.50;;;15.00;1.00;;;;;;7384741;19;20018;-69
2023/10/04 08:14:29;;;;;;;4.15;1.73;;;15.00;1.00;;;;;;7385576;19;20026;-70
2023/10/04 08:17:00;;;;;;;5.53;1.80;;;14.80;1.00;;;;;;7385921;19;20062;-69
2023/10/04 08:19:31;;;;;;;7.35;2.25;;;15.10;1.00;;;;;;7385673;19;20018;-70
2023/10/04 08:22:02;;;;;;;4.07;1.70;;;15.40;1.00;;;;;;7386284;19;20346;-68
2023/10/04 08:24:32;;;;;;;7.10;1.95;;;15.30;1.00;;;;;;7386130;19;20018;-69
2023/10/04 08:27:05;;;;;;;5.18;1.52;;;15.50;1.00;;;;;;7386363;19;20035;-70
2023/10/04 08:29:37;;;;;;;4.85;1.50;;;15.50;1.00;;;;;;7386796;19;20042;-70
2023/10/04 08:32:07;;;;;;;4.85;1.67;;;15.60;1.00;;;;;;7385499;19;20041;-71
2023/10/04 08:34:37;;;;;;;4.57;1.67;;;15.50;1.00;;;;;;7386182;19;20040;-69
2023/10/04 08:37:07;;;;;;;4.35;1.40;;;15.60;1.00;;;;;;7384771;19;20089;-69
2023/10/04 08:39:37;;;;;;;6.03;1.40;;;15.70;1.00;;;;;;7385707;19;20807;-70
2023/10/04 08:42:10;;;;;;;4.47;1.52;;;15.40;1.00;;;;;;7383816;19;20390;-69
2023/10/04 08:44:40;;;;;;;8.30;2.00;;;15.50;1.00;;;;;;7385558;19;20014;-70
2023/10/04 08:47:10;;;;;;;5.53;1.35;;;15.60;1.00;;;;;;7385520;19;20082;-70
2023/10/04 08:49:50;;;;;;;7.07;1.38;;;15.70;1.00;;;;;;7386661;19;20010;-70
2023/10/04 08:52:23;;;;;;;5.70;1.45;;;15.40;1.00;;;;;;7383582;19;20753;-70
2023/10/04 08:55:03;;;;;;;5.68;1.90;;;15.50;1.00;;;;;;7387186;19;20747;-69
2023/10/04 08:57:39;;;;;;;5.32;1.63;;;15.60;1.00;;;;;;7383266;19;20010;-71
2023/10/04 09:00:13;;;;;;;5.82;1.40;;;16.10;1.00;;;;;;7387909;19;20467;-71
2023/10/04 09:03:01;;;;;;;5.82;1.40;;;16.20;1.00;;;;;;7385070;19;20522;-71
2023/10/04 09:05:31;;;;;;;4.53;1.40;;;16.30;1.00;;;;;;7391201;19;20014;-70
2023/10/04 09:08:04;;;;;;;5.15;1.25;;;15.80;1.00;;;;;;7389372;19;20031;-71
2023/10/04 09:10:36;;;;;;;3.05;1.35;;;16.20;1.00;;;;;;7392109;19;20015;-69
2023/10/04 09:13:09;;;;;;;5.13;1.40;;;16.00;1.00;;;;;;7390768;19;20006;-70
2023/10/04 09:15:40;;;;;;;5.28;1.38;;;15.70;1.00;;;;;;7386129;19;20042;-70
2023/10/04 09:18:11;;;;;;;4.53;1.50;;;16.00;1.00;;;;;;7390910;19;20020;-71
2023/10/04 09:20:42;;;;;;;3.47;1.45;;;16.20;1.00;;;;;;7389907;19;20039;-70
2023/10/04 09:23:22;;;;;;;4.82;1.33;;;16.20;1.00;;;;;;7389796;19;20078;-70
2023/10/04 09:25:55;;;;;;;6.82;1.30;;;16.60;1.00;;;;;;7388836;19;20006;-70
2023/10/04 09:28:44;;;;;;;7.65;1.95;;;16.70;1.00;;;;;;7390835;19;20028;-70
2023/10/04 09:31:15;;;;;;;5.95;1.70;;;16.80;1.00;;;;;;7391094;19;20018;-70
2023/10/04 09:33:46;;;;;;;7.38;1.33;;;16.90;1.00;;;;;;7391158;19;20597;-70
2023/10/04 09:36:33;;;;;;;4.97;1.55;;;16.70;1.00;;;;;;7390976;19;20126;-71
2023/10/04 09:39:11;;;;;;;5.97;1.55;;;16.40;1.00;;;;;;7391426;19;20031;-70
2023/10/04 09:41:44;;;;;;;9.10;1.90;;;16.30;1.00;;;;;;7388977;19;20006;-71
2023/10/04 09:44:26;;;;;;;6.75;1.77;;;16.60;1.00;;;;;;7390562;19;20086;-70
2023/10/04 09:46:57;;;;;;;6.68;1.42;;;16.80;1.00;;;;;;7388614;19;20002;-71
2023/10/04 09:49:31;;;;;;;6.03;1.92;;;16.80;1.00;;;;;;7389938;19;20085;-70
2023/10/04 09:52:02;;;;;;;;;;;16.40;1.00;;;;;;7390593;19;20011;-70
2023/10/04 09:54:34;;;;;;;3.05;1.30;;;16.40;1.00;;;;;;7390380;19;19926;-70
2023/10/04 09:57:09;;;;;;;2.40;1.05;;;17.00;1.00;;;;;;7388213;19;20874;-70
2023/10/04 09:59:43;;;;;;;6.07;1.90;;;16.60;1.00;;;;;;7386841;19;20021;-71
2023/10/04 10:02:16;;;;;;;2.33;1.25;;;16.50;1.00;;;;;;7388800;19;20015;-71
2023/10/04 10:04:49;;;;;;;8.48;1.50;;;16.50;1.00;;;;;;7390082;19;20351;-71
2023/10/04 10:07:23;;;;;;;4.47;1.38;;;17.00;1.00;;;;;;7387850;19;20031;-70
2023/10/04 10:10:01;;;;;;;3.35;1.42;;;16.50;1.00;;;;;;7388399;19;20045;-71
2023/10/04 10:12:38;;;;;;;7.00;1.70;;;16.60;1.00;;;;;;7387145;19;20018;-71
2023/10/04 10:15:13;;;;;;;4.88;1.45;;;16.40;1.00;;;;;;7387577;19;20014;-71
2023/10/04 10:17:45;;;;;;;5.20;1.70;;;16.60;1.00;;;;;;7386127;19;20022;-70
2023/10/04 10:20:17;;;;;;;2.55;1.20;;;17.10;1.00;;;;;;7387930;19;20111;-71
2023/10/04 10:23:10;;;;;;;5.28;1.50;;;17.30;1.00;;;;;;7380855;19;20011;-71
2023/10/04 10:25:41;;;;;;;5.13;1.42;;;17.80;1.00;;;;;;7386908;19;20070;-71
2023/10/04 10:28:23;;;;;;;4.75;1.25;;;17.40;1.00;;;;;;7388544;19;20419;-71
2023/10/04 10:31:08;;;;;;;3.55;1.10;;;17.80;1.00;;;;;;7389740;19;20010;-71
2023/10/04 10:33:39;;;;;;;4.97;1.63;;;17.70;1.00;;;;;;7387229;19;20432;-70
2023/10/04 10:36:21;;;;;;;4.75;1.35;;;17.90;1.00;;;;;;7385923;19;20007;-70
2023/10/04 10:38:54;;;;;;;5.50;1.67;;;17.80;1.00;;;;;;7387482;19;20014;-70
2023/10/04 10:42:03;;;;;;;4.53;1.23;;;17.70;1.00;;;;;;7382648;19;20019;-71
2023/10/04 10:44:39;;;;;;;5.53;1.55;;;17.50;1.00;;;;;;6858034;19;2004942;-70
2023/10/04 10:47:19;;;;;;;5.97;1.33;;;17.50;1.00;;;;;;7323113;19;20011;-71
2023/10/04 10:50:03;;;;;;;5.15;1.52;;;17.80;1.00;;;;;;7368156;19;20018;-71
2023/10/04 10:52:42;;;;;;;5.15;1.23;;;17.80;1.00;;;;;;7370673;19;20102;-70
2023/10/04 10:55:18;;;;;;;3.20;1.17;;;18.10;1.00;;;;;;7371444;19;20018;-70
2023/10/04 10:57:50;;;;;;;5.70;1.30;;;17.70;1.00;;;;;;7369701;19;20006;-70
2023/10/04 11:00:22;;;;;;;3.38;1.20;;;17.50;1.00;;;;;;7371985;19;20018;-71
2023/10/04 11:02:55;;;;;;;4.15;1.40;;;17.40;1.00;;;;;;7371000;19;20388;-71
2023/10/04 11:05:26;;;;;;;1.50;1.08;;;17.20;1.00;;;;;;7370009;19;20048;-70
2023/10/04 11:07:57;;;;;;;3.58;1.30;;;17.20;1.00;;;;;;7367810;19;20463;-71
2023/10/04 11:10:30;;;;;;;2.95;1.10;;;17.30;1.00;;;;;;7370050;19;20103;-70
2023/10/04 11:13:07;;;;;;;4.68;1.33;;;17.60;1.00;;;;;;7370449;19;20014;-71
2023/10/04 11:15:41;;;;;;;4.40;1.38;;;18.00;1.00;;;;;;7368603;19;20018;-70
2023/10/04 11:18:17;;;;;;;4.97;1.38;;;17.60;1.00;;;;;;7373101;19;20010;-71
2023/10/04 11:20:47;;;;;;;2.95;0.95;;;17.50;1.00;;;;;;7370676;19;20136;-70
2023/10/04 11:23:17;;;;;;;3.17;1.13;;;18.10;1.00;;;;;;7369841;19;20837;-71
2023/10/04 11:25:48;;;;;;;1.77;0.85;;;17.80;1.00;;;;;;7368852;19;20013;-70
2023/10/04 11:28:18;;;;;;;5.65;1.38;;;17.70;1.00;;;;;;7370969;19;20020;-69
2023/10/04 11:30:48;;;;;;;3.28;1.20;;;18.00;1.00;;;;;;7371168;19;20085;-71
2023/10/04 11:33:23;;;;;;;2.08;0.88;;;17.40;1.00;;;;;;7371560;19;20506;-70
2023/10/04 11:35:53;;;;;;;3.35;1.10;;;17.50;1.00;;;;;;7370807;19;20037;-70
2023/10/04 11:38:24;;;;;;;2.88;1.05;;;17.70;1.00;;;;;;7369167;19;20042;-69
2023/10/04 11:40:54;;;;;;;3.55;1.00;;;17.40;1.00;;;;;;7370680;19;20496;-70
2023/10/04 11:43:27;;;;;;;2.65;1.08;;;17.80;1.00;;;;;;7368705;19;20021;-69
2023/10/04 11:46:04;;;;;;;4.53;1.10;;;17.90;1.00;;;;;;7368821;19;20018;-70
2023/10/04 11:48:36;;;;;;;2.20;0.90;;;18.50;1.00;;;;;;7369935;19;20111;-70
2023/10/04 11:51:07;;;;;;;2.92;0.88;;;18.30;1.00;;;;;;7367565;19;20006;-70
2023/10/04 11:53:38;;;;;;;2.40;0.90;;;17.80;1.00;;;;;;7369467;19;20017;-70
2023/10/04 11:56:10;;;;;;;5.53;0.88;;;18.10;1.00;;;;;;7368809;19;20432;-68
2023/10/04 11:58:47;;;;;;;2.40;0.85;;;18.10;1.00;;;;;;7370512;19;20002;-70
2023/10/04 12:01:19;;;;;;;4.20;1.20;;;17.80;1.00;;;;;;7366260;19;20494;-69
2023/10/04 12:03:53;;;;;;;2.40;0.98;;;17.80;1.00;;;;;;7369481;19;20014;-70
2023/10/04 12:06:27;;;;;;;2.65;0.73;;;17.90;1.00;;;;;;7367412;19;20393;-70
2023/10/04 12:08:58;;;;;;;3.75;1.25;;;18.10;1.00;;;;;;7368838;19;20002;-69
2023/10/04 12:11:35;;;;;;;1.77;0.90;;;18.40;1.00;;;;;;7368372;19;20015;-69
2023/10/04 12:14:05;;;;;;;2.83;1.02;;;18.50;1.00;;;;;;7369522;19;20090;-69
2023/10/04 12:16:37;;;;;;;2.47;0.88;;;18.30;1.00;;;;;;7364469;19;20007;-70
2023/10/04 12:19:09;;;;;;;4.63;1.20;;;18.50;1.00;;;;;;7368773;19;20180;-69
2023/10/04 12:21:39;;;;;;;1.73;0.98;;;18.00;1.00;;;;;;7366803;19;20494;-70
2023/10/04 12:24:10;;;;;;;4.20;1.13;;;18.30;1.00;;;;;;7366715;19;20106;-69
2023/10/04 12:26:40;;;;;;;2.20;0.95;;;18.20;1.00;;;;;;7367908;19;20014;-70
2023/10/04 12:29:11;;;;;;;2.15;0.63;;;18.40;1.00;;;;;;7369391;19;20014;-70
2023/10/04 12:31:41;;;;;;;3.03;1.10;;;18.50;1.00;;;;;;7369426;19;20053;-69
2023/10/04 12:34:13;;;;;;;3.72;1.02;;;18.30;1.00;;;;;;7367108;19;20011;-69
2023/10/04 12:36:44;;;;;;;3.22;1.00;;;18.60;1.00;;;;;;7368123;19;20007;-70
2023/10/04 12:39:26;;;;;;;3.00;1.08;;;18.40;1.00;;;;;;6860600;19;2004919;-71
2023/10/04 12:41:59;;;;;;;4.53;1.10;;;18.50;1.00;;;;;;7372224;19;20654;-69
2023/10/04 12:44:29;;;;;;;2.00;1.40;;;18.80;1.00;;;;;;7373741;19;20074;-70
2023/10/04 12:46:59;;;;;;;4.35;0.90;;;18.40;1.00;;;;;;7372717;19;20011;-70
2023/10/04 12:49:32;;;;;;;4.57;0.98;;;18.80;1.00;;;;;;7356764;19;20014;-70
2023/10/04 12:52:04;;;;;;;2.88;0.90;;;18.90;1.00;;;;;;7372880;19;20106;-69
2023/10/04 12:54:34;;;;;;;2.25;0.80;;;18.50;1.00;;;;;;7370973;19;20061;-69
2023/10/04 12:57:04;;;;;;;4.60;1.20;;;18.50;1.00;;;;;;7372157;19;20024;-69
2023/10/04 12:59:34;;;;;;;1.70;0.90;;;18.40;1.00;;;;;;7371790;19;20034;-69
2023/10/04 13:02:05;;;;;;;2.55;1.35;;;18.50;1.00;;;;;;7372806;19;20437;-69
2023/10/04 13:04:38;;;;;;;2.72;1.45;;;18.50;1.00;;;;;;7372264;19;20031;-69
2023/10/04 13:07:08;;;;;;;3.05;0.90;;;18.20;1.00;;;;;;7372708;19;20043;-69
2023/10/04 13:09:43;;;;;;;4.38;1.10;;;18.40;1.00;;;;;;7372297;19;20010;-70
2023/10/04 13:12:27;;;;;;;5.97;1.42;;;18.00;1.00;;;;;;6861700;19;2004050;-69
2023/10/04 13:14:57;;;;;;;4.93;0.90;;;18.10;1.00;;;;;;7373585;19;20011;-69
2023/10/04 13:17:27;;;;;;;2.33;0.98;;;17.80;1.00;;;;;;7367037;19;20014;-69
2023/10/04 13:20:02;;;;;;;4.63;1.25;;;17.60;1.00;;;;;;7373778;19;20019;-70